Time,TemperatureF,DewpointF,PressureIn,WindDirection,WindDirectionDegrees,WindSpeedMPH,WindSpeedGustMPH,Humidity,HourlyPrecipIn,Conditions,Clouds,dailyrainin,SoftwareType,DateUTC
2013-02-11 00:14:00,10.2,9.7,29.53,NE,45,5.3,-999.0,98,-99.99,,,0.00,Acu-Link.com,2013-02-11 07:14:00,
2013-02-11 00:29:00,9.1,8.7,29.52,NE,45,4.7,-999.0,98,-99.99,,,0.00,Acu-Link.com,2013-02-11 07:29:00,
2013-02-11 00:45:00,9.1,8.7,29.52,ENE,67,5.8,-999.0,98,-99.99,,,0.00,Acu-Link.com,2013-02-11 07:45:00,
2013-02-11 01:00:00,9.1,8.7,29.53,NE,45,4.2,-999.0,98,-99.99,,,0.00,Acu-Link.com,2013-02-11 08:00:00,
2013-02-11 01:15:00,7.9,7.5,29.52,NE,45,4.7,-999.0,98,-99.99,,,0.00,Acu-Link.com,2013-02-11 08:15:00,
2013-02-11 01:30:00,7.0,6.6,29.52,NNE,22,6.3,-999.0,98,-99.99,,,0.00,Acu-Link.com,2013-02-11 08:30:00,
2013-02-11 01:46:00,7.5,7.1,29.53,NE,45,3.7,-999.0,98,-99.99,,,0.00,Acu-Link.com,2013-02-11 08:46:00,
2013-02-11 02:01:00,7.7,7.3,29.52,NE,45,6.3,-999.0,98,-99.99,,,0.00,Acu-Link.com,2013-02-11 09:01:00,
2013-02-11 02:17:00,7.9,7.5,29.52,NE,45,5.8,-999.0,98,-99.99,,,0.00,Acu-Link.com,2013-02-11 09:17:00,
2013-02-11 02:32:00,8.4,8.0,29.52,NNE,22,3.7,-999.0,98,-99.99,,,0.00,Acu-Link.com,2013-02-11 09:32:00,
2013-02-11 02:47:00,8.1,7.7,29.51,NNE,22,4.2,-999.0,98,-99.99,,,0.00,Acu-Link.com,2013-02-11 09:47:00,
2013-02-11 03:02:00,7.5,7.1,29.52,NNE,22,4.2,-999.0,98,-99.99,,,0.00,Acu-Link.com,2013-02-11 10:02:00,
2013-02-11 03:17:00,7.0,6.6,29.51,NNE,22,4.2,-999.0,98,-99.99,,,0.00,Acu-Link.com,2013-02-11 10:17:00,
2013-02-11 03:32:00,7.0,6.6,29.51,NE,45,3.7,-999.0,98,-99.99,,,0.00,Acu-Link.com,2013-02-11 10:32:00,
2013-02-11 03:47:00,6.3,5.9,29.51,NNE,22,4.2,-999.0,98,-99.99,,,0.00,Acu-Link.com,2013-02-11 10:47:00,
2013-02-11 04:02:00,6.4,5.5,29.50,NE,45,3.7,-999.0,96,-99.99,,,0.00,Acu-Link.com,2013-02-11 11:02:00,
2013-02-11 04:17:00,5.7,5.3,29.50,North,0,4.7,-999.0,98,-99.99,,,0.00,Acu-Link.com,2013-02-11 11:17:00,
2013-02-11 04:33:00,6.6,6.2,29.50,NE,45,3.7,-999.0,98,-99.99,,,0.00,Acu-Link.com,2013-02-11 11:33:00,
2013-02-11 04:48:00,6.4,5.5,29.50,ENE,67,5.3,-999.0,96,-99.99,,,0.00,Acu-Link.com,2013-02-11 11:48:00,
2013-02-11 05:03:00,5.7,4.4,29.51,SE,135,3.7,-999.0,94,-99.99,,,0.00,Acu-Link.com,2013-02-11 12:03:00,
2013-02-11 05:19:00,4.8,4.1,29.51,WSW,247,2.2,-999.0,97,-99.99,,,0.00,Acu-Link.com,2013-02-11 12:19:00,
2013-02-11 05:34:00,4.6,4.2,29.53,ESE,112,0.0,-999.0,98,-99.99,,,0.00,Acu-Link.com,2013-02-11 12:34:00,
2013-02-11 05:50:00,4.3,3.9,29.52,NE,45,0.0,-999.0,98,-99.99,,,0.00,Acu-Link.com,2013-02-11 12:50:00,
2013-02-11 06:05:00,4.6,4.2,29.52,SSW,202,0.0,-999.0,98,-99.99,,,0.00,Acu-Link.com,2013-02-11 13:05:00,
2013-02-11 06:20:00,4.6,4.2,29.52,SW,225,0.0,-999.0,98,-99.99,,,0.00,Acu-Link.com,2013-02-11 13:20:00,
2013-02-11 06:35:00,4.8,4.4,29.53,NW,315,0.0,-999.0,98,-99.99,,,0.00,Acu-Link.com,2013-02-11 13:35:00,
2013-02-11 06:50:00,3.6,2.5,29.53,NNW,337,0.0,-999.0,95,-99.99,,,0.00,Acu-Link.com,2013-02-11 13:50:00,
2013-02-11 07:06:00,3.6,3.2,29.55,SSW,202,0.0,-999.0,98,-99.99,,,0.00,Acu-Link.com,2013-02-11 14:06:00,
2013-02-11 07:21:00,3.6,3.2,29.53,NE,45,0.0,-999.0,98,-99.99,,,0.00,Acu-Link.com,2013-02-11 14:21:00,
2013-02-11 07:36:00,5.5,5.1,29.55,SE,135,0.0,-999.0,98,-99.99,,,0.00,Acu-Link.com,2013-02-11 14:36:00,
2013-02-11 07:52:00,8.4,8.0,29.55,NNE,22,0.0,-999.0,98,-99.99,,,0.00,Acu-Link.com,2013-02-11 14:52:00,
2013-02-11 08:07:00,8.6,6.8,29.55,ENE,67,0.0,-999.0,92,-99.99,,,0.00,Acu-Link.com,2013-02-11 15:07:00,
2013-02-11 08:22:00,9.1,7.7,29.56,ENE,67,0.0,-999.0,94,-99.99,,,0.00,Acu-Link.com,2013-02-11 15:22:00,
2013-02-11 08:38:00,11.1,9.5,29.56,ESE,112,0.0,-999.0,93,-99.99,,,0.00,Acu-Link.com,2013-02-11 15:38:00,
2013-02-11 08:53:00,12.2,7.0,29.56,North,0,0.0,-999.0,79,-99.99,,,0.00,Acu-Link.com,2013-02-11 15:53:00,
2013-02-11 09:08:00,11.5,8.4,29.57,SE,135,0.0,-999.0,87,-99.99,,,0.00,Acu-Link.com,2013-02-11 16:08:00,
2013-02-11 09:24:00,11.8,7.7,29.57,SE,135,0.0,-999.0,83,-99.99,,,0.00,Acu-Link.com,2013-02-11 16:24:00,
2013-02-11 09:39:00,12.9,9.0,29.57,ENE,67,0.0,-999.0,84,-99.99,,,0.00,Acu-Link.com,2013-02-11 16:39:00,
2013-02-11 09:54:00,13.3,10.2,29.57,ESE,112,0.0,-999.0,87,-99.99,,,0.00,Acu-Link.com,2013-02-11 16:54:00,
2013-02-11 10:09:00,17.8,10.3,29.57,SSE,157,0.0,-999.0,72,-99.99,,,0.00,Acu-Link.com,2013-02-11 17:09:00,
2013-02-11 10:24:00,19.6,12.1,29.57,SSE,157,0.0,-999.0,72,-99.99,,,0.00,Acu-Link.com,2013-02-11 17:24:00,
2013-02-11 10:39:00,21.7,13.1,29.57,South,180,3.2,-999.0,69,-99.99,,,0.00,Acu-Link.com,2013-02-11 17:39:00,
2013-02-11 10:54:00,20.5,13.9,29.57,SSW,202,2.7,-999.0,75,-99.99,,,0.00,Acu-Link.com,2013-02-11 17:54:00,
2013-02-11 11:09:00,20.3,14.8,29.58,SW,225,3.2,-999.0,79,-99.99,,,0.00,Acu-Link.com,2013-02-11 18:09:00,
2013-02-11 11:25:00,26.8,17.3,29.57,South,180,2.2,-999.0,67,-99.99,,,0.00,Acu-Link.com,2013-02-11 18:25:00,
2013-02-11 11:40:00,28.8,17.8,29.56,South,180,2.2,-999.0,63,-99.99,,,0.00,Acu-Link.com,2013-02-11 18:40:00,
2013-02-11 11:55:00,25.0,17.6,29.56,East,90,0.0,-999.0,73,-99.99,,,0.00,Acu-Link.com,2013-02-11 18:55:00,
2013-02-11 12:11:00,23.9,16.2,29.56,East,90,1.7,-999.0,72,-99.99,,,0.00,Acu-Link.com,2013-02-11 19:11:00,
2013-02-11 12:26:00,28.2,17.6,29.55,SSE,157,1.7,-999.0,64,-99.99,,,0.00,Acu-Link.com,2013-02-11 19:26:00,
2013-02-11 12:41:00,28.8,16.3,29.54,SSW,202,2.7,-999.0,59,-99.99,,,0.00,Acu-Link.com,2013-02-11 19:41:00,
2013-02-11 12:56:00,30.0,16.2,29.53,SSE,157,0.0,-999.0,56,-99.99,,,0.01,Acu-Link.com,2013-02-11 19:56:00,
2013-02-11 13:12:00,27.9,16.2,29.53,South,180,2.7,-999.0,61,-99.99,,,0.02,Acu-Link.com,2013-02-11 20:12:00,
2013-02-11 13:27:00,28.8,15.5,29.52,SSE,157,3.2,-999.0,57,-99.99,,,0.02,Acu-Link.com,2013-02-11 20:27:00,
2013-02-11 13:42:00,30.9,16.2,29.51,North,0,0.0,-999.0,54,-99.99,,,0.02,Acu-Link.com,2013-02-11 20:42:00,
2013-02-11 13:57:00,28.4,14.7,29.51,SE,135,2.7,-999.0,56,-99.99,,,0.02,Acu-Link.com,2013-02-11 20:57:00,
2013-02-11 14:13:00,29.7,15.5,29.51,SSE,157,0.0,-999.0,55,-99.99,,,0.03,Acu-Link.com,2013-02-11 21:13:00,
2013-02-11 14:28:00,27.7,14.1,29.51,NE,45,0.0,-999.0,56,-99.99,,,0.03,Acu-Link.com,2013-02-11 21:28:00,
2013-02-11 14:43:00,27.9,13.4,29.50,ESE,112,0.0,-999.0,54,-99.99,,,0.03,Acu-Link.com,2013-02-11 21:43:00,
2013-02-11 14:59:00,30.2,13.4,29.50,SSW,202,7.3,-999.0,49,-99.99,,,0.03,Acu-Link.com,2013-02-11 21:59:00,
2013-02-11 15:14:00,27.9,14.7,29.53,North,0,6.3,-999.0,57,-99.99,,,0.03,Acu-Link.com,2013-02-11 22:14:00,
2013-02-11 15:30:00,26.2,12.7,29.52,NE,45,3.7,-999.0,56,-99.99,,,0.03,Acu-Link.com,2013-02-11 22:30:00,
2013-02-11 15:45:00,24.4,12.5,29.52,North,0,7.3,-999.0,60,-99.99,,,0.03,Acu-Link.com,2013-02-11 22:45:00,
2013-02-11 16:00:00,23.5,14.9,29.52,NNE,22,8.3,-999.0,69,-99.99,,,0.03,Acu-Link.com,2013-02-11 23:00:00,
2013-02-11 16:15:00,23.9,13.9,29.52,NE,45,7.8,-999.0,65,-99.99,,,0.03,Acu-Link.com,2013-02-11 23:15:00,
2013-02-11 16:31:00,23.9,12.1,29.53,NE,45,2.7,-999.0,60,-99.99,,,0.03,Acu-Link.com,2013-02-11 23:31:00,
2013-02-11 16:46:00,23.5,12.8,29.54,NNE,22,5.3,-999.0,63,-99.99,,,0.03,Acu-Link.com,2013-02-11 23:46:00,
2013-02-11 17:01:00,23.4,12.3,29.54,NE,45,3.7,-999.0,62,-99.99,,,0.03,Acu-Link.com,2013-02-12 00:01:00,
2013-02-11 17:16:00,20.5,11.6,29.55,SE,135,3.7,-999.0,68,-99.99,,,0.03,Acu-Link.com,2013-02-12 00:16:00,
2013-02-11 17:32:00,18.7,10.6,29.56,NNW,337,0.0,-999.0,70,-99.99,,,0.03,Acu-Link.com,2013-02-12 00:32:00,
2013-02-11 17:47:00,18.0,11.7,29.56,NNE,22,2.7,-999.0,76,-99.99,,,0.03,Acu-Link.com,2013-02-12 00:47:00,
2013-02-11 18:02:00,15.8,7.8,29.57,WSW,247,0.0,-999.0,70,-99.99,,,0.03,Acu-Link.com,2013-02-12 01:02:00,
2013-02-11 18:18:00,13.1,7.3,29.58,NNW,337,2.2,-999.0,77,-99.99,,,0.03,Acu-Link.com,2013-02-12 01:18:00,
2013-02-11 18:33:00,11.5,7.4,29.59,SW,225,0.0,-999.0,83,-99.99,,,0.03,Acu-Link.com,2013-02-12 01:33:00,
2013-02-11 18:48:00,10.8,6.7,29.60,ESE,112,0.0,-999.0,83,-99.99,,,0.03,Acu-Link.com,2013-02-12 01:48:00,
2013-02-11 19:03:00,9.7,6.4,29.61,SW,225,0.0,-999.0,86,-99.99,,,0.03,Acu-Link.com,2013-02-12 02:03:00,
2013-02-11 19:18:00,8.8,7.2,29.61,SW,225,1.1,-999.0,93,-99.99,,,0.03,Acu-Link.com,2013-02-12 02:18:00,
2013-02-11 19:34:00,8.1,7.7,29.63,West,270,2.2,-999.0,98,-99.99,,,0.03,Acu-Link.com,2013-02-12 02:34:00,
2013-02-11 19:49:00,8.4,7.0,29.62,NE,45,2.7,-999.0,94,-99.99,,,0.03,Acu-Link.com,2013-02-12 02:49:00,
2013-02-11 20:04:00,6.4,4.6,29.63,NNE,22,2.2,-999.0,92,-99.99,,,0.03,Acu-Link.com,2013-02-12 03:04:00,
2013-02-11 20:20:00,5.9,4.6,29.64,North,0,2.2,-999.0,94,-99.99,,,0.03,Acu-Link.com,2013-02-12 03:20:00,
2013-02-11 20:35:00,5.5,4.4,29.65,NE,45,2.2,-999.0,95,-99.99,,,0.03,Acu-Link.com,2013-02-12 03:35:00,
2013-02-11 20:50:00,5.9,4.6,29.65,SSW,202,1.7,-999.0,94,-99.99,,,0.03,Acu-Link.com,2013-02-12 03:50:00,
2013-02-11 21:06:00,5.0,3.7,29.65,WSW,247,0.0,-999.0,94,-99.99,,,0.03,Acu-Link.com,2013-02-12 04:06:00,
2013-02-11 21:21:00,4.6,3.7,29.65,SW,225,0.0,-999.0,96,-99.99,,,0.03,Acu-Link.com,2013-02-12 04:21:00,
2013-02-11 21:36:00,3.9,3.5,29.65,NNW,337,0.0,-999.0,98,-99.99,,,0.03,Acu-Link.com,2013-02-12 04:36:00,
2013-02-11 21:51:00,3.0,2.6,29.66,NNE,22,0.0,-999.0,98,-99.99,,,0.03,Acu-Link.com,2013-02-12 04:51:00,
2013-02-11 22:07:00,2.8,2.4,29.66,West,270,0.0,-999.0,98,-99.99,,,0.03,Acu-Link.com,2013-02-12 05:07:00,
2013-02-11 22:22:00,3.7,3.3,29.66,North,0,0.0,-999.0,98,-99.99,,,0.03,Acu-Link.com,2013-02-12 05:22:00,
2013-02-11 22:37:00,3.2,2.8,29.66,South,180,2.2,-999.0,98,-99.99,,,0.03,Acu-Link.com,2013-02-12 05:37:00,
2013-02-11 22:53:00,1.4,0.1,29.65,WSW,247,0.0,-999.0,94,-99.99,,,0.03,Acu-Link.com,2013-02-12 05:53:00,
2013-02-11 23:08:00,0.7,0.1,29.66,South,180,0.0,-999.0,97,-99.99,,,0.03,Acu-Link.com,2013-02-12 06:08:00,
2013-02-11 23:23:00,-0.2,-0.6,29.68,NNW,337,1.7,-999.0,98,-99.99,,,0.03,Acu-Link.com,2013-02-12 06:23:00,
2013-02-11 23:39:00,0.9,0.5,29.68,NNW,337,3.7,-999.0,98,-99.99,,,0.03,Acu-Link.com,2013-02-12 06:39:00,
2013-02-11 23:54:00,0.7,-0.6,29.68,ESE,112,1.7,-999.0,94,-99.99,,,0.03,Acu-Link.com,2013-02-12 06:54:00,